createdAt,value
2019-02-18T00:01:41.822Z,10.00
2019-02-18T00:04:09.870Z,9.47
2019-02-18T00:06:37.926Z,10.43
2019-02-18T00:09:06.187Z,9.87
2019-02-18T00:11:34.274Z,10.97
2019-02-18T00:14:02.361Z,10.30
2019-02-18T00:16:30.415Z,10.03
2019-02-18T00:18:58.474Z,10.50
2019-02-18T00:21:26.535Z,10.07
2019-02-18T00:23:54.665Z,11.10
2019-02-18T00:26:22.751Z,11.33
2019-02-18T00:28:50.803Z,12.07
2019-02-18T00:31:18.854Z,11.73
2019-02-18T00:33:46.911Z,10.13
2019-02-18T00:36:14.971Z,10.47
2019-02-18T00:38:43.042Z,10.67
2019-02-18T00:41:11.102Z,10.30
2019-02-18T00:43:39.157Z,8.87
2019-02-18T00:46:07.218Z,10.23
2019-02-18T00:48:35.267Z,9.13
2019-02-18T00:51:03.355Z,8.43
2019-02-18T00:53:31.420Z,11.73
2019-02-18T00:56:00.218Z,9.03
2019-02-18T00:58:28.362Z,8.47
2019-02-18T01:00:56.415Z,9.17
2019-02-18T01:03:24.470Z,9.17
2019-02-18T01:05:52.519Z,9.37
2019-02-18T01:08:20.595Z,8.87
2019-02-18T01:10:48.642Z,8.87
2019-02-18T01:13:16.750Z,9.53
2019-02-18T01:15:44.832Z,10.07
2019-02-18T01:18:12.878Z,9.83
2019-02-18T01:20:40.950Z,10.40
2019-02-18T01:23:09.000Z,11.30
2019-02-18T01:25:37.054Z,10.40
2019-02-18T01:28:05.151Z,10.33
2019-02-18T01:30:33.186Z,10.93
2019-02-18T01:33:01.254Z,10.47
2019-02-18T01:35:29.327Z,10.70
2019-02-18T01:37:57.390Z,9.63
2019-02-18T01:40:25.444Z,9.83
2019-02-18T01:42:53.501Z,9.63
2019-02-18T01:45:21.558Z,9.47
2019-02-18T01:47:49.606Z,11.37
2019-02-18T01:50:17.654Z,11.63
2019-02-18T01:52:45.715Z,11.83
2019-02-18T01:55:13.773Z,12.50
2019-02-18T01:57:41.818Z,11.37
2019-02-18T02:00:11.062Z,10.83
2019-02-18T02:02:39.186Z,10.00
2019-02-18T02:05:07.681Z,11.70
2019-02-18T02:07:35.802Z,12.33
2019-02-18T02:10:05.332Z,12.00
2019-02-18T02:12:33.490Z,12.13
2019-02-18T02:15:01.560Z,12.13
2019-02-18T02:17:29.599Z,11.60
2019-02-18T02:19:57.674Z,12.40
2019-02-18T02:22:25.721Z,11.00
2019-02-18T02:24:53.786Z,11.53
2019-02-18T02:27:22.382Z,11.00
2019-02-18T02:29:50.456Z,11.63
2019-02-18T02:32:18.522Z,10.17
2019-02-18T02:34:46.564Z,9.23
2019-02-18T02:37:14.614Z,10.87
2019-02-18T02:39:42.679Z,9.60
2019-02-18T02:42:10.727Z,11.33
2019-02-18T02:44:38.782Z,10.63
2019-02-18T02:47:06.838Z,9.53
2019-02-18T02:49:34.946Z,9.30
2019-02-18T02:52:03.072Z,8.63
2019-02-18T02:54:31.116Z,10.23
2019-02-18T02:56:59.172Z,8.40
2019-02-18T02:59:27.226Z,8.60
2019-02-18T03:01:55.284Z,8.77
2019-02-18T03:04:23.361Z,9.07
2019-02-18T03:06:51.414Z,10.03
2019-02-18T03:09:19.465Z,7.93
2019-02-18T03:11:47.526Z,9.53
2019-02-18T03:14:15.576Z,9.70
2019-02-18T03:16:43.627Z,10.43
2019-02-18T03:19:11.702Z,10.63
2019-02-18T03:21:39.750Z,11.47
2019-02-18T03:24:07.802Z,11.33
2019-02-18T03:26:35.870Z,11.80
2019-02-18T03:29:21.830Z,12.13
2019-02-18T03:31:49.867Z,10.87
2019-02-18T03:34:25.365Z,11.07
2019-02-18T03:36:53.414Z,9.80
2019-02-18T03:39:21.476Z,10.20
2019-02-18T03:41:49.531Z,9.07
2019-02-18T03:44:17.579Z,10.10
2019-02-18T03:46:45.665Z,10.23
2019-02-18T03:49:13.723Z,10.17
2019-02-18T03:51:42.739Z,10.90
2019-02-18T03:54:10.883Z,11.80
2019-02-18T03:56:38.956Z,12.77
2019-02-18T03:59:07.085Z,12.03
2019-02-18T04:01:35.153Z,11.33
2019-02-18T04:04:03.223Z,12.30
2019-02-18T04:06:31.283Z,11.60
2019-02-18T04:08:59.334Z,11.00
2019-02-18T04:11:27.387Z,10.77
2019-02-18T04:13:55.455Z,9.67
2019-02-18T04:16:23.513Z,9.83
2019-02-18T04:18:51.578Z,8.20
2019-02-18T04:21:19.627Z,13.37
2019-02-18T04:23:47.677Z,8.10
2019-02-18T04:26:15.741Z,8.80
2019-02-18T04:28:43.785Z,9.50
2019-02-18T04:31:11.844Z,9.40
2019-02-18T04:33:39.895Z,9.63
2019-02-18T04:36:07.946Z,11.30
2019-02-18T04:38:36.025Z,10.87
2019-02-18T04:41:04.082Z,9.93
2019-02-18T04:43:32.325Z,9.70
2019-02-18T04:46:00.376Z,10.27
2019-02-18T04:48:28.424Z,9.63
2019-02-18T04:50:56.482Z,9.57
2019-02-18T04:53:24.564Z,9.93
2019-02-18T04:55:52.631Z,11.10
2019-02-18T04:58:20.682Z,10.77
2019-02-18T05:00:48.734Z,11.77
2019-02-18T05:03:16.790Z,11.90
2019-02-18T05:05:44.843Z,12.13
2019-02-18T05:08:12.891Z,10.90
2019-02-18T05:10:40.973Z,9.53
2019-02-18T05:13:09.020Z,8.27
2019-02-18T05:15:37.073Z,7.43
2019-02-18T05:18:05.130Z,7.93
2019-02-18T05:20:33.178Z,7.87
2019-02-18T05:23:01.242Z,8.40
2019-02-18T05:25:29.290Z,9.50
2019-02-18T05:27:57.334Z,9.17
2019-02-18T05:30:26.061Z,10.53
2019-02-18T05:32:54.218Z,11.07
2019-02-18T05:35:22.281Z,13.17
2019-02-18T05:37:50.358Z,12.40
2019-02-18T05:40:18.424Z,11.23
2019-02-18T05:42:46.470Z,9.90
2019-02-18T05:45:14.535Z,8.77
2019-02-18T05:47:42.605Z,7.60
2019-02-18T05:50:10.713Z,9.70
2019-02-18T05:52:38.755Z,8.03
2019-02-18T05:55:06.980Z,8.87
2019-02-18T05:57:35.035Z,8.63
2019-02-18T06:00:03.118Z,8.70
2019-02-18T06:02:31.173Z,8.63
2019-02-18T06:04:59.227Z,10.30
2019-02-18T06:07:27.283Z,10.97
2019-02-18T06:09:55.338Z,10.03
2019-02-18T06:12:23.406Z,10.20
2019-02-18T06:14:51.458Z,10.00
2019-02-18T06:17:19.498Z,9.27
2019-02-18T06:19:47.654Z,9.40
2019-02-18T06:22:15.687Z,9.50
2019-02-18T06:24:43.726Z,8.07
2019-02-18T06:27:11.794Z,7.60
2019-02-18T06:29:39.848Z,8.23
2019-02-18T06:32:07.894Z,8.33
2019-02-18T06:34:35.963Z,9.20
2019-02-18T06:37:04.029Z,8.43
2019-02-18T06:39:40.924Z,9.10
2019-02-18T06:42:01.864Z,9.77
2019-02-18T06:44:31.554Z,9.60
2019-02-18T06:47:01.230Z,9.20
2019-02-18T06:49:29.299Z,8.80
2019-02-18T06:51:59.038Z,9.03
2019-02-18T06:54:27.080Z,8.07
2019-02-18T06:57:02.701Z,9.30
2019-02-18T06:59:35.125Z,8.83
2019-02-18T07:02:05.165Z,8.77
2019-02-18T07:04:34.833Z,8.83
2019-02-18T07:07:04.591Z,8.70
2019-02-18T07:09:37.257Z,8.13
2019-02-18T07:12:09.857Z,9.50
2019-02-18T07:14:37.938Z,9.57
2019-02-18T07:17:06.008Z,10.40
2019-02-18T07:19:34.064Z,10.07
2019-02-18T07:22:02.143Z,10.17
2019-02-18T07:24:30.182Z,10.70
2019-02-18T07:26:58.230Z,11.00
2019-02-18T07:29:26.286Z,9.87
2019-02-18T07:31:54.341Z,9.23
2019-02-18T07:34:22.404Z,7.87
2019-02-18T07:36:50.515Z,9.27
2019-02-18T07:39:18.562Z,9.53
2019-02-18T07:41:46.648Z,9.80
2019-02-18T07:44:14.694Z,9.80
2019-02-18T07:46:42.744Z,10.97
2019-02-18T07:49:10.805Z,11.80
2019-02-18T07:51:38.853Z,12.03
2019-02-18T07:54:06.942Z,12.33
2019-02-18T07:56:35.007Z,11.53
2019-02-18T07:59:03.063Z,12.67
2019-02-18T08:01:31.116Z,16.27
2019-02-18T08:03:59.155Z,13.77
2019-02-18T08:06:27.223Z,12.27
2019-02-18T08:08:55.274Z,13.13
2019-02-18T08:11:23.330Z,12.63
2019-02-18T08:13:51.395Z,12.60
2019-02-18T08:16:19.445Z,13.20
2019-02-18T08:18:47.511Z,13.00
2019-02-18T08:21:15.576Z,12.97
2019-02-18T08:23:43.625Z,14.03
2019-02-18T08:26:11.675Z,13.53
2019-02-18T08:28:39.738Z,14.17
2019-02-18T08:31:07.785Z,12.57
2019-02-18T08:33:35.865Z,13.17
2019-02-18T08:36:03.930Z,13.93
2019-02-18T08:38:32.003Z,13.73
2019-02-18T08:41:00.063Z,13.33
2019-02-18T08:43:28.119Z,13.00
2019-02-18T08:45:56.169Z,14.23
2019-02-18T08:48:24.383Z,14.17
2019-02-18T08:50:52.530Z,13.93
2019-02-18T08:53:20.579Z,14.40
2019-02-18T08:55:48.622Z,12.90
2019-02-18T08:58:16.679Z,13.90
2019-02-18T09:00:44.728Z,14.03
2019-02-18T09:03:12.778Z,15.10
2019-02-18T09:05:40.851Z,13.70
2019-02-18T09:08:08.903Z,14.93
2019-02-18T09:10:36.950Z,13.90
2019-02-18T09:13:05.002Z,15.50
2019-02-18T09:15:33.056Z,14.60
2019-02-18T09:18:01.134Z,14.93
2019-02-18T09:20:29.193Z,14.27
2019-02-18T09:23:05.047Z,14.03
2019-02-18T09:25:34.730Z,14.47
2019-02-18T09:28:02.842Z,14.40
2019-02-18T09:30:32.567Z,14.40
2019-02-18T09:33:00.618Z,14.80
2019-02-18T09:35:28.673Z,14.13
2019-02-18T09:37:56.734Z,14.03
2019-02-18T09:40:24.800Z,14.67
2019-02-18T09:42:52.854Z,13.80
2019-02-18T09:45:20.909Z,14.40
2019-02-18T09:47:48.954Z,14.87
2019-02-18T09:50:17.005Z,14.33
2019-02-18T09:52:45.054Z,13.87
2019-02-18T09:55:13.124Z,14.50
2019-02-18T09:57:41.185Z,16.07
2019-02-18T10:00:10.775Z,14.53
2019-02-18T10:02:38.846Z,15.03
2019-02-18T10:05:07.475Z,15.13
2019-02-18T10:07:35.570Z,15.03
2019-02-18T10:10:04.903Z,15.60
2019-02-18T10:12:33.027Z,15.77
2019-02-18T10:15:01.092Z,15.23
2019-02-18T10:17:29.136Z,15.57
2019-02-18T10:19:57.190Z,18.07
2019-02-18T10:22:25.325Z,15.63
2019-02-18T10:24:53.390Z,15.90
2019-02-18T10:27:21.451Z,16.10
2019-02-18T10:29:49.503Z,15.40
2019-02-18T10:32:17.558Z,16.23
2019-02-18T10:34:45.647Z,15.37
2019-02-18T10:37:13.698Z,16.50
2019-02-18T10:39:41.758Z,14.43
2019-02-18T10:42:09.831Z,15.43
2019-02-18T10:44:37.856Z,15.67
2019-02-18T10:47:05.938Z,14.97
2019-02-18T10:49:34.326Z,16.23
2019-02-18T10:52:06.006Z,15.20
2019-02-18T10:54:34.070Z,14.67
2019-02-18T10:57:02.123Z,15.23
2019-02-18T10:59:30.183Z,15.47
2019-02-18T11:01:58.262Z,16.57
2019-02-18T11:04:26.397Z,15.43
2019-02-18T11:06:54.444Z,14.47
2019-02-18T11:09:22.507Z,13.30
2019-02-18T11:11:50.552Z,15.17
2019-02-18T11:14:18.615Z,13.97
2019-02-18T11:16:46.658Z,13.60
2019-02-18T11:19:14.715Z,14.23
2019-02-18T11:21:42.787Z,13.23
2019-02-18T11:24:10.843Z,14.80
2019-02-18T11:26:38.971Z,12.77
2019-02-18T11:29:07.398Z,11.77
2019-02-18T11:31:35.490Z,12.23
2019-02-18T11:34:03.558Z,11.00
2019-02-18T11:36:31.613Z,10.70
2019-02-18T11:38:59.662Z,11.37
2019-02-18T11:41:27.869Z,11.47
2019-02-18T11:43:55.958Z,11.23
2019-02-18T11:46:24.014Z,9.97
2019-02-18T11:48:52.058Z,10.03
2019-02-18T11:51:20.177Z,9.23
2019-02-18T11:53:48.234Z,7.60
2019-02-18T11:56:16.306Z,7.57
2019-02-18T11:58:44.356Z,9.67
2019-02-18T12:01:12.400Z,9.63
2019-02-18T12:03:40.458Z,8.70
2019-02-18T12:06:08.530Z,9.63
2019-02-18T12:08:36.634Z,9.17
2019-02-18T12:11:04.698Z,7.60
2019-02-18T12:13:32.743Z,8.23
2019-02-18T12:16:00.792Z,9.10
2019-02-18T12:18:29.022Z,9.87
2019-02-18T12:20:57.072Z,10.70
2019-02-18T12:23:25.115Z,9.33
2019-02-18T12:25:53.183Z,10.97
2019-02-18T12:28:21.568Z,10.37
2019-02-18T12:30:49.643Z,9.60
2019-02-18T12:33:17.693Z,9.90
2019-02-18T12:35:45.938Z,10.07
2019-02-18T12:38:14.014Z,9.77
2019-02-18T12:40:42.070Z,10.60
2019-02-18T12:43:10.114Z,8.20
2019-02-18T12:45:38.159Z,9.37
2019-02-18T12:48:06.223Z,9.33
2019-02-18T12:50:34.698Z,8.97
2019-02-18T12:53:03.023Z,10.40
2019-02-18T12:55:31.418Z,9.57
2019-02-18T12:57:59.634Z,8.07
2019-02-18T13:00:27.678Z,8.77
2019-02-18T13:02:55.732Z,8.07
2019-02-18T13:05:23.780Z,8.03
2019-02-18T13:07:52.127Z,6.93
2019-02-18T13:10:20.598Z,6.13
2019-02-18T13:12:48.674Z,5.77
2019-02-18T13:15:17.491Z,5.40
2019-02-18T13:17:45.547Z,5.93
2019-02-18T13:20:13.640Z,6.40
2019-02-18T13:22:41.828Z,5.83
2019-02-18T13:25:10.086Z,6.20
2019-02-18T13:27:38.203Z,6.50
2019-02-18T13:30:08.064Z,6.67
2019-02-18T13:32:36.114Z,6.27
2019-02-18T13:35:04.547Z,5.73
2019-02-18T13:37:32.599Z,5.83
2019-02-18T13:40:00.647Z,6.30
2019-02-18T13:42:28.727Z,6.03
2019-02-18T13:44:56.871Z,6.17
2019-02-18T13:47:25.083Z,6.57
2019-02-18T13:49:53.138Z,5.73
2019-02-18T13:52:21.186Z,6.40
2019-02-18T13:54:49.237Z,6.30
2019-02-18T13:57:17.302Z,6.23
2019-02-18T13:59:45.362Z,6.40
2019-02-18T14:02:13.791Z,6.40
2019-02-18T14:04:41.843Z,6.40
2019-02-18T14:07:10.803Z,6.03
2019-02-18T14:09:38.866Z,7.00
2019-02-18T14:12:06.915Z,7.00
2019-02-18T14:14:35.000Z,6.67
2019-02-18T14:17:03.047Z,6.80
2019-02-18T14:19:31.368Z,6.13
2019-02-18T14:21:59.453Z,5.90
2019-02-18T14:24:27.522Z,6.40
2019-02-18T14:26:55.602Z,6.20
2019-02-18T14:29:23.649Z,5.67
2019-02-18T14:31:51.700Z,6.30
2019-02-18T14:34:19.734Z,6.60
2019-02-18T14:36:47.779Z,6.07
2019-02-18T14:39:23.119Z,6.53
2019-02-18T14:41:51.162Z,5.27
2019-02-18T14:44:19.206Z,5.00
2019-02-18T14:46:47.272Z,5.80
2019-02-18T14:49:15.450Z,6.23
2019-02-18T14:51:46.239Z,5.30
2019-02-18T14:54:14.316Z,5.80
2019-02-18T14:56:42.518Z,5.13
2019-02-18T14:59:10.597Z,5.30
2019-02-18T15:01:38.630Z,5.07
2019-02-18T15:04:06.870Z,5.90
2019-02-18T15:06:35.202Z,5.70
2019-02-18T15:09:03.583Z,5.80
2019-02-18T15:11:31.639Z,6.73
2019-02-18T15:13:59.686Z,6.23
2019-02-18T15:16:27.730Z,7.13
2019-02-18T15:18:55.806Z,7.17
2019-02-18T15:21:23.850Z,6.80
2019-02-18T15:23:51.894Z,7.33
2019-02-18T15:26:19.950Z,7.80
2019-02-18T15:28:48.002Z,7.10
2019-02-18T15:31:16.043Z,8.07
2019-02-18T15:33:44.131Z,7.67
2019-02-18T15:36:12.178Z,8.50
2019-02-18T15:38:40.599Z,8.10
2019-02-18T15:41:08.644Z,8.00
2019-02-18T15:43:36.707Z,8.17
2019-02-18T15:46:04.781Z,8.50
2019-02-18T15:48:32.832Z,7.53
2019-02-18T15:51:00.896Z,7.70
2019-02-18T15:53:28.946Z,8.83
2019-02-18T15:55:57.178Z,8.23
2019-02-18T15:58:25.219Z,8.10
2019-02-18T16:00:53.285Z,8.23
2019-02-18T16:03:21.336Z,7.13
2019-02-18T16:05:49.402Z,10.03
2019-02-18T16:08:17.450Z,7.97
2019-02-18T16:10:45.817Z,9.80
2019-02-18T16:13:13.978Z,8.83
2019-02-18T16:15:42.010Z,8.73
2019-02-18T16:18:10.061Z,12.87
2019-02-18T16:20:38.111Z,9.03
2019-02-18T16:23:06.166Z,8.00
2019-02-18T16:25:34.271Z,8.10
2019-02-18T16:28:02.733Z,9.27
2019-02-18T16:30:30.810Z,9.30
2019-02-18T16:32:58.894Z,8.73
2019-02-18T16:35:27.222Z,8.10
2019-02-18T16:37:55.267Z,8.60
2019-02-18T16:40:23.607Z,7.63
2019-02-18T16:42:59.026Z,9.37
2019-02-18T16:45:21.458Z,8.40
2019-02-18T16:47:49.498Z,9.67
2019-02-18T16:50:17.551Z,9.03
2019-02-18T16:52:45.597Z,9.30
2019-02-18T16:55:14.314Z,11.70
2019-02-18T16:57:42.388Z,12.73
2019-02-18T17:00:24.934Z,10.00
2019-02-18T17:02:53.182Z,9.33
2019-02-18T17:05:21.226Z,8.43
2019-02-18T17:07:49.266Z,8.27
2019-02-18T17:10:17.342Z,9.20
2019-02-18T17:12:45.780Z,8.97
2019-02-18T17:15:13.823Z,8.23
2019-02-18T17:17:41.942Z,9.30
2019-02-18T17:20:10.007Z,8.17
2019-02-18T17:22:57.987Z,8.40
2019-02-18T17:25:26.815Z,8.43
2019-02-18T17:27:54.854Z,7.77
2019-02-18T17:30:22.931Z,8.73
2019-02-18T17:32:50.963Z,8.53
2019-02-18T17:35:19.005Z,7.73
2019-02-18T17:37:47.093Z,8.13
2019-02-18T17:40:15.214Z,7.50
2019-02-18T17:42:43.533Z,7.23
2019-02-18T17:45:12.570Z,8.00
2019-02-18T17:47:40.638Z,7.80
2019-02-18T17:50:12.864Z,5.80
2019-02-18T17:52:40.946Z,7.17
2019-02-18T17:55:10.268Z,7.00
2019-02-18T17:57:38.611Z,7.17
2019-02-18T18:00:11.010Z,7.93
2019-02-18T18:02:39.056Z,7.50
2019-02-18T18:05:07.792Z,6.10
2019-02-18T18:07:35.886Z,6.80
2019-02-18T18:10:05.886Z,6.67
2019-02-18T18:12:35.216Z,7.77
2019-02-18T18:15:04.179Z,7.43
2019-02-18T18:17:32.228Z,7.60
2019-02-18T18:20:00.338Z,7.63
2019-02-18T18:22:28.429Z,6.77
2019-02-18T18:24:56.470Z,7.10
2019-02-18T18:27:24.544Z,7.37
2019-02-18T18:29:52.969Z,7.80
2019-02-18T18:32:21.022Z,7.90
2019-02-18T18:34:49.086Z,8.10
2019-02-18T18:37:17.177Z,6.97
2019-02-18T18:39:45.294Z,7.40
2019-02-18T18:42:13.402Z,7.20
2019-02-18T18:44:41.727Z,7.50
2019-02-18T18:47:09.776Z,7.40
2019-02-18T18:49:37.846Z,7.43
2019-02-18T18:52:05.890Z,8.13
2019-02-18T18:54:33.962Z,9.43
2019-02-18T18:57:02.011Z,8.30
2019-02-18T18:59:30.139Z,8.03
2019-02-18T19:01:58.258Z,8.17
2019-02-18T19:04:26.309Z,8.27
2019-02-18T19:06:54.354Z,8.63
2019-02-18T19:09:22.418Z,8.90
2019-02-18T19:11:50.479Z,8.83
2019-02-18T19:14:18.529Z,8.33
2019-02-18T19:16:46.902Z,7.97
2019-02-18T19:19:14.953Z,7.93
2019-02-18T19:21:43.028Z,8.37
2019-02-18T19:24:11.072Z,8.23
2019-02-18T19:26:39.127Z,9.80
2019-02-18T19:29:07.197Z,9.57
2019-02-18T19:31:35.784Z,8.80
2019-02-18T19:34:03.834Z,9.37
2019-02-18T19:36:32.341Z,8.43
2019-02-18T19:39:00.402Z,8.33
2019-02-18T19:41:28.448Z,9.77
2019-02-18T19:43:57.044Z,7.87
2019-02-18T19:46:25.129Z,11.73
2019-02-18T19:48:53.202Z,8.83
2019-02-18T19:51:22.437Z,9.13
2019-02-18T19:53:50.565Z,8.67
2019-02-18T19:56:18.691Z,9.83
2019-02-18T19:58:46.732Z,9.97
2019-02-18T20:01:14.793Z,10.33
2019-02-18T20:03:43.130Z,13.03
2019-02-18T20:06:11.169Z,9.10
2019-02-18T20:08:39.211Z,17.97
2019-02-18T20:11:07.288Z,13.03
2019-02-18T20:13:35.857Z,11.27
2019-02-18T20:16:03.862Z,12.50
2019-02-18T20:18:31.951Z,10.50
2019-02-18T20:21:00.116Z,10.63
2019-02-18T20:23:28.311Z,9.77
2019-02-18T20:25:56.369Z,8.57
2019-02-18T20:28:24.418Z,9.33
2019-02-18T20:30:52.472Z,9.33
2019-02-18T20:33:20.522Z,9.60
2019-02-18T20:35:48.903Z,9.60
2019-02-18T20:38:16.964Z,9.73
2019-02-18T20:40:45.050Z,9.70
2019-02-18T20:43:13.075Z,9.87
2019-02-18T20:45:41.219Z,10.17
2019-02-18T20:48:09.282Z,8.37
2019-02-18T20:50:37.792Z,11.13
2019-02-18T20:53:05.984Z,9.40
2019-02-18T20:55:34.026Z,8.90
2019-02-18T20:58:03.888Z,9.10
2019-02-18T21:00:32.101Z,9.83
2019-02-18T21:03:00.202Z,10.27
2019-02-18T21:05:28.347Z,9.37
2019-02-18T21:07:56.585Z,9.77
2019-02-18T21:10:25.554Z,9.17
2019-02-18T21:12:53.618Z,9.87
2019-02-18T21:15:22.555Z,10.27
2019-02-18T21:17:50.714Z,9.70
2019-02-18T21:20:18.766Z,9.03
2019-02-18T21:22:47.189Z,9.20
2019-02-18T21:25:15.303Z,9.27
2019-02-18T21:27:43.351Z,9.57
2019-02-18T21:30:12.370Z,9.83
2019-02-18T21:32:40.418Z,9.67
2019-02-18T21:35:08.538Z,9.07
2019-02-18T21:37:36.658Z,8.60
2019-02-18T21:40:05.779Z,9.27
2019-02-18T21:42:33.823Z,9.27
2019-02-18T21:45:01.913Z,10.93
2019-02-18T21:47:30.018Z,10.07
2019-02-18T21:49:58.109Z,9.67
2019-02-18T21:52:26.162Z,11.27
2019-02-18T21:54:54.594Z,10.43
2019-02-18T21:57:22.652Z,10.03
2019-02-18T21:59:50.702Z,10.13
2019-02-18T22:02:18.898Z,10.40
2019-02-18T22:04:46.928Z,9.77
2019-02-18T22:07:14.983Z,10.77
2019-02-18T22:09:43.037Z,9.57
2019-02-18T22:12:11.358Z,9.60
2019-02-18T22:14:39.410Z,9.80
2019-02-18T22:17:07.483Z,8.60
2019-02-18T22:19:35.539Z,10.40
2019-02-18T22:22:03.596Z,9.10
2019-02-18T22:24:31.751Z,9.13
2019-02-18T22:26:59.790Z,8.97
2019-02-18T22:29:28.141Z,7.80
2019-02-18T22:31:56.210Z,8.30
2019-02-18T22:34:24.259Z,8.27
2019-02-18T22:36:52.322Z,7.87
2019-02-18T22:39:20.424Z,8.73
2019-02-18T22:41:48.499Z,8.93
2019-02-18T22:44:16.555Z,9.07
2019-02-18T22:46:44.878Z,9.23
2019-02-18T22:49:14.934Z,8.83
2019-02-18T22:51:43.642Z,8.67
2019-02-18T22:54:11.797Z,8.07
2019-02-18T22:56:40.759Z,8.23
2019-02-18T22:59:08.862Z,8.00
2019-02-18T23:01:37.080Z,8.00
2019-02-18T23:04:05.582Z,8.73
2019-02-18T23:06:33.639Z,8.47
2019-02-18T23:09:01.705Z,8.17
2019-02-18T23:11:29.748Z,8.00
2019-02-18T23:13:57.794Z,7.77
2019-02-18T23:16:25.888Z,7.93
2019-02-18T23:18:53.946Z,8.07
2019-02-18T23:21:22.279Z,7.67
2019-02-18T23:23:50.335Z,6.93
2019-02-18T23:26:18.423Z,7.50
2019-02-18T23:28:46.568Z,6.83
2019-02-18T23:31:14.636Z,7.60
2019-02-18T23:33:42.738Z,6.90
2019-02-18T23:36:10.782Z,7.80
2019-02-18T23:38:38.852Z,7.37
2019-02-18T23:41:06.906Z,6.43
2019-02-18T23:43:34.955Z,7.03
2019-02-18T23:46:03.008Z,6.50
2019-02-18T23:48:31.085Z,6.93
2019-02-18T23:50:59.144Z,6.77
2019-02-18T23:53:27.194Z,6.83
2019-02-18T23:55:55.258Z,6.93
2019-02-18T23:58:23.308Z,6.57
